sensor_id;sensor_type;location;lat;lon;timestamp;P1;durP1;ratioP1;P2;durP2;ratioP2
56130;SDS011;42000;44.774;20.506;2023-03-20T05:32:43;43.15;;;20.90;;
56130;SDS011;42000;44.774;20.506;2023-03-20T05:35:10;48.45;;;21.42;;
56130;SDS011;42000;44.774;20.506;2023-03-20T05:37:37;44.30;;;21.40;;
56130;SDS011;42000;44.774;20.506;2023-03-20T05:40:03;43.15;;;20.58;;
56130;SDS011;42000;44.774;20.506;2023-03-20T05:42:30;40.22;;;20.17;;
56130;SDS011;42000;44.774;20.506;2023-03-20T05:44:56;38.30;;;20.45;;
56130;SDS011;42000;44.774;20.506;2023-03-20T05:47:22;44.08;;;20.85;;
56130;SDS011;42000;44.774;20.506;2023-03-20T05:49:48;52.25;;;25.63;;
56130;SDS011;42000;44.774;20.506;2023-03-20T05:52:14;51.40;;;26.02;;
56130;SDS011;42000;44.774;20.506;2023-03-20T05:54:40;40.10;;;24.25;;
56130;SDS011;42000;44.774;20.506;2023-03-20T05:57:06;46.42;;;23.25;;
56130;SDS011;42000;44.774;20.506;2023-03-20T05:59:32;41.88;;;23.33;;
56130;SDS011;42000;44.774;20.506;2023-03-20T06:01:58;47.20;;;22.90;;
56130;SDS011;42000;44.774;20.506;2023-03-20T06:04:24;43.90;;;24.27;;
56130;SDS011;42000;44.774;20.506;2023-03-20T06:06:50;41.40;;;23.67;;
56130;SDS011;42000;44.774;20.506;2023-03-20T06:09:16;45.38;;;23.25;;
56130;SDS011;42000;44.774;20.506;2023-03-20T06:11:42;82.30;;;46.13;;
56130;SDS011;42000;44.774;20.506;2023-03-20T06:14:08;78.40;;;39.05;;
56130;SDS011;42000;44.774;20.506;2023-03-20T06:16:34;70.20;;;34.72;;
56130;SDS011;42000;44.774;20.506;2023-03-20T06:19:00;61.08;;;30.80;;
56130;SDS011;42000;44.774;20.506;2023-03-20T06:21:26;52.08;;;26.60;;
56130;SDS011;42000;44.774;20.506;2023-03-20T06:23:52;45.33;;;24.63;;
56130;SDS011;42000;44.774;20.506;2023-03-20T06:26:19;41.70;;;23.63;;
56130;SDS011;42000;44.774;20.506;2023-03-20T06:28:45;42.60;;;23.92;;
56130;SDS011;42000;44.774;20.506;2023-03-20T06:31:11;44.47;;;25.58;;
56130;SDS011;42000;44.774;20.506;2023-03-20T06:33:37;46.55;;;24.90;;
56130;SDS011;42000;44.774;20.506;2023-03-20T06:36:04;46.90;;;24.05;;
56130;SDS011;42000;44.774;20.506;2023-03-20T06:38:30;44.92;;;25.65;;
56130;SDS011;42000;44.774;20.506;2023-03-20T06:40:56;45.03;;;24.55;;
56130;SDS011;42000;44.774;20.506;2023-03-20T06:43:22;40.90;;;23.95;;
56130;SDS011;42000;44.774;20.506;2023-03-20T06:45:48;45.50;;;26.00;;
56130;SDS011;42000;44.774;20.506;2023-03-20T06:48:14;43.63;;;24.75;;
56130;SDS011;42000;44.774;20.506;2023-03-20T06:50:45;47.00;;;25.00;;
56130;SDS011;42000;44.774;20.506;2023-03-20T06:53:11;51.28;;;27.75;;
56130;SDS011;42000;44.774;20.506;2023-03-20T06:55:37;44.92;;;24.55;;
56130;SDS011;42000;44.774;20.506;2023-03-20T06:58:03;47.08;;;24.80;;
56130;SDS011;42000;44.774;20.506;2023-03-20T07:00:29;47.50;;;25.42;;
56130;SDS011;42000;44.774;20.506;2023-03-20T07:02:56;45.13;;;24.48;;
56130;SDS011;42000;44.774;20.506;2023-03-20T07:05:22;41.78;;;23.98;;
56130;SDS011;42000;44.774;20.506;2023-03-20T07:07:48;46.65;;;24.65;;
56130;SDS011;42000;44.774;20.506;2023-03-20T07:10:14;44.65;;;24.50;;
56130;SDS011;42000;44.774;20.506;2023-03-20T07:12:41;40.35;;;24.33;;
56130;SDS011;42000;44.774;20.506;2023-03-20T07:15:08;43.90;;;24.63;;
56130;SDS011;42000;44.774;20.506;2023-03-20T07:17:35;45.55;;;24.92;;
56130;SDS011;42000;44.774;20.506;2023-03-20T07:20:01;44.72;;;23.95;;
56130;SDS011;42000;44.774;20.506;2023-03-20T07:22:28;42.53;;;23.55;;
56130;SDS011;42000;44.774;20.506;2023-03-20T07:24:55;44.20;;;24.70;;
56130;SDS011;42000;44.774;20.506;2023-03-20T07:27:21;36.65;;;22.60;;
56130;SDS011;42000;44.774;20.506;2023-03-20T07:29:48;41.15;;;23.73;;
56130;SDS011;42000;44.774;20.506;2023-03-20T07:32:14;40.55;;;24.75;;
56130;SDS011;42000;44.774;20.506;2023-03-20T07:34:41;38.22;;;23.52;;
56130;SDS011;42000;44.774;20.506;2023-03-20T07:37:07;37.55;;;23.20;;
56130;SDS011;42000;44.774;20.506;2023-03-20T07:39:33;38.88;;;23.45;;
56130;SDS011;42000;44.774;20.506;2023-03-20T07:41:59;40.75;;;24.63;;
56130;SDS011;42000;44.774;20.506;2023-03-20T07:44:25;39.33;;;23.83;;
56130;SDS011;42000;44.774;20.506;2023-03-20T07:46:51;39.83;;;22.48;;
56130;SDS011;42000;44.774;20.506;2023-03-20T07:49:17;35.88;;;21.88;;
56130;SDS011;42000;44.774;20.506;2023-03-20T07:51:44;35.95;;;21.30;;
